createdAt,value
2018-07-13T00:01:06.510Z,18.70
2018-07-13T00:03:35.806Z,17.57
2018-07-13T00:06:04.937Z,16.10
2018-07-13T00:08:34.420Z,10.83
2018-07-13T00:11:03.765Z,8.47
2018-07-13T00:13:38.501Z,9.07
2018-07-13T00:16:07.292Z,8.47
2018-07-13T00:18:36.449Z,8.30
2018-07-13T00:21:05.741Z,9.70
2018-07-13T00:23:34.866Z,10.40
2018-07-13T00:26:04.273Z,10.63
2018-07-13T00:28:33.397Z,9.80
2018-07-13T00:31:02.549Z,10.67
2018-07-13T00:33:31.832Z,10.83
2018-07-13T00:36:00.976Z,17.73
2018-07-13T00:38:30.805Z,13.07
2018-07-13T00:40:59.706Z,15.03
2018-07-13T00:43:28.987Z,15.80
2018-07-13T00:45:58.329Z,15.47
2018-07-13T00:48:27.152Z,14.70
2018-07-13T00:50:56.332Z,12.03
2018-07-13T00:53:25.727Z,10.07
2018-07-13T00:55:55.082Z,10.37
2018-07-13T00:58:24.236Z,10.73
2018-07-13T01:00:54.354Z,10.07
2018-07-13T01:03:24.357Z,10.47
2018-07-13T01:05:54.414Z,12.53
2018-07-13T01:08:24.398Z,10.07
2018-07-13T01:10:54.094Z,9.37
2018-07-13T01:13:23.605Z,10.93
2018-07-13T01:15:53.147Z,10.43
2018-07-13T01:18:22.646Z,12.67
2018-07-13T01:20:52.669Z,11.77
2018-07-13T01:23:22.113Z,9.80
2018-07-13T01:25:52.010Z,11.07
2018-07-13T01:28:21.866Z,11.43
2018-07-13T01:30:52.347Z,9.87
2018-07-13T01:33:22.263Z,12.00
2018-07-13T01:35:51.986Z,11.23
2018-07-13T01:38:21.147Z,11.83
2018-07-13T01:40:50.361Z,11.17
2018-07-13T01:43:19.809Z,9.57
2018-07-13T01:45:49.822Z,14.93
2018-07-13T01:48:19.940Z,12.30
2018-07-13T01:50:49.552Z,10.07
2018-07-13T01:53:18.976Z,9.73
2018-07-13T01:55:47.952Z,10.03
2018-07-13T01:58:17.565Z,10.40
2018-07-13T02:00:47.072Z,8.47
2018-07-13T02:03:17.085Z,7.70
2018-07-13T02:05:47.253Z,9.33
2018-07-13T02:08:17.284Z,17.63
2018-07-13T02:10:47.149Z,10.27
2018-07-13T02:13:16.942Z,9.53
2018-07-13T02:15:46.141Z,11.97
2018-07-13T02:18:15.552Z,14.10
2018-07-13T02:20:44.575Z,11.10
2018-07-13T02:23:13.723Z,11.43
2018-07-13T02:25:42.858Z,10.63
2018-07-13T02:28:11.943Z,14.67
2018-07-13T02:30:41.009Z,18.53
2018-07-13T02:33:10.167Z,17.97
2018-07-13T02:35:39.228Z,51.10
2018-07-13T02:38:08.276Z,11.27
2018-07-13T02:40:37.355Z,12.13
2018-07-13T02:43:06.235Z,10.20
2018-07-13T02:45:35.262Z,8.77
2018-07-13T02:48:04.344Z,10.40
2018-07-13T02:50:33.622Z,9.33
2018-07-13T02:53:02.724Z,10.40
2018-07-13T02:55:31.743Z,12.00
2018-07-13T02:58:01.013Z,21.77
2018-07-13T03:00:30.176Z,10.77
2018-07-13T03:02:59.389Z,9.73
2018-07-13T03:05:28.500Z,12.30
2018-07-13T03:07:57.654Z,18.67
2018-07-13T03:10:26.661Z,12.87
2018-07-13T03:12:55.669Z,14.23
2018-07-13T03:15:24.720Z,13.27
2018-07-13T03:17:54.035Z,9.20
2018-07-13T03:20:23.266Z,9.97
2018-07-13T03:22:52.382Z,9.30
2018-07-13T03:25:21.532Z,10.63
2018-07-13T03:27:50.576Z,8.67
2018-07-13T03:30:19.664Z,9.30
2018-07-13T03:32:48.702Z,10.50
2018-07-13T03:35:17.937Z,9.97
2018-07-13T03:37:47.122Z,8.93
2018-07-13T03:40:16.194Z,10.40
2018-07-13T03:42:45.558Z,10.60
2018-07-13T03:45:14.637Z,10.23
2018-07-13T03:47:43.639Z,9.97
2018-07-13T03:50:12.700Z,9.23
2018-07-13T03:52:41.845Z,8.63
2018-07-13T03:55:11.026Z,9.33
2018-07-13T03:57:40.146Z,8.43
2018-07-13T04:00:09.528Z,8.63
2018-07-13T04:02:38.654Z,10.47
2018-07-13T04:05:08.127Z,10.17
2018-07-13T04:07:37.340Z,10.33
2018-07-13T04:10:06.761Z,11.80
2018-07-13T04:12:36.015Z,10.00
2018-07-13T04:15:05.134Z,10.93
2018-07-13T04:17:34.235Z,10.67
2018-07-13T04:20:03.265Z,11.43
2018-07-13T04:22:32.331Z,10.60
2018-07-13T04:25:01.721Z,8.97
2018-07-13T04:27:32.355Z,11.30
2018-07-13T04:30:01.639Z,11.97
2018-07-13T04:32:31.154Z,9.30
2018-07-13T04:35:00.634Z,16.23
2018-07-13T04:37:30.767Z,9.20
2018-07-13T04:40:00.128Z,10.67
2018-07-13T04:42:29.056Z,10.80
2018-07-13T04:44:57.791Z,18.43
2018-07-13T04:47:26.620Z,12.17
2018-07-13T04:49:55.778Z,10.37
2018-07-13T04:52:25.072Z,8.20
2018-07-13T04:54:54.339Z,11.57
2018-07-13T04:57:23.478Z,9.43
2018-07-13T04:59:52.886Z,9.67
2018-07-13T05:02:22.161Z,7.93
2018-07-13T05:04:51.538Z,7.83
2018-07-13T05:07:20.812Z,9.43
2018-07-13T05:09:49.957Z,9.37
2018-07-13T05:12:19.411Z,11.50
2018-07-13T05:14:48.398Z,30.17
2018-07-13T05:17:17.608Z,12.83
2018-07-13T05:19:46.877Z,13.30
2018-07-13T05:22:16.456Z,13.43
2018-07-13T05:24:45.664Z,11.47
2018-07-13T05:27:15.153Z,10.30
2018-07-13T05:29:44.399Z,9.47
2018-07-13T05:32:13.784Z,10.17
2018-07-13T05:34:43.224Z,9.30
2018-07-13T05:37:13.006Z,9.47
2018-07-13T05:39:42.413Z,8.87
2018-07-13T05:42:11.847Z,10.80
2018-07-13T05:44:41.453Z,43.10
2018-07-13T05:47:10.723Z,11.80
2018-07-13T05:49:40.046Z,10.00
2018-07-13T05:52:09.347Z,8.17
2018-07-13T05:54:38.683Z,8.67
2018-07-13T05:57:08.340Z,7.10
2018-07-13T05:59:37.772Z,7.50
2018-07-13T06:02:07.002Z,11.13
2018-07-13T06:04:35.864Z,10.17
2018-07-13T06:07:04.961Z,9.70
2018-07-13T06:09:34.186Z,8.00
2018-07-13T06:12:03.614Z,9.43
2018-07-13T06:14:32.850Z,8.30
2018-07-13T06:17:02.056Z,7.60
2018-07-13T06:19:31.305Z,6.07
2018-07-13T06:22:00.518Z,6.53
2018-07-13T06:24:29.741Z,5.07
2018-07-13T06:26:58.765Z,4.90
2018-07-13T06:29:28.084Z,4.42
2018-07-13T06:31:57.316Z,5.60
2018-07-13T06:34:26.740Z,5.05
2018-07-13T06:36:56.922Z,4.85
2018-07-13T06:39:26.222Z,5.00
2018-07-13T06:41:55.761Z,4.17
2018-07-13T06:44:25.092Z,3.70
2018-07-13T06:46:54.127Z,5.08
2018-07-13T06:49:23.354Z,4.70
2018-07-13T06:51:52.612Z,5.80
2018-07-13T06:54:22.742Z,9.68
2018-07-13T06:56:52.000Z,5.28
2018-07-13T06:59:21.559Z,4.83
2018-07-13T07:01:50.827Z,6.87
2018-07-13T07:04:22.753Z,6.10
2018-07-13T07:06:52.540Z,4.55
2018-07-13T07:09:22.165Z,5.10
2018-07-13T07:13:07.806Z,5.35
2018-07-13T07:15:37.624Z,5.87
2018-07-13T07:18:07.344Z,5.83
2018-07-13T07:20:37.104Z,5.50
2018-07-13T07:23:06.465Z,6.53
2018-07-13T07:25:35.746Z,6.37
2018-07-13T07:28:05.162Z,5.70
2018-07-13T07:30:34.710Z,6.45
2018-07-13T07:33:03.810Z,5.92
2018-07-13T07:35:32.958Z,4.95
2018-07-13T07:38:02.346Z,4.85
2018-07-13T07:40:35.578Z,5.45
2018-07-13T07:43:04.844Z,5.45
2018-07-13T07:45:34.166Z,4.85
2018-07-13T07:48:03.442Z,4.33
2018-07-13T07:50:32.903Z,4.80
2018-07-13T07:53:02.200Z,4.62
2018-07-13T07:55:31.476Z,4.42
2018-07-13T07:58:01.370Z,4.15
2018-07-13T08:00:30.892Z,4.30
2018-07-13T08:03:00.280Z,4.35
2018-07-13T08:05:29.591Z,4.50
2018-07-13T08:07:58.887Z,3.55
2018-07-13T08:10:28.481Z,4.45
2018-07-13T08:12:57.702Z,4.50
2018-07-13T08:15:27.245Z,4.20
2018-07-13T08:17:56.456Z,3.70
2018-07-13T08:20:33.387Z,4.92
2018-07-13T08:23:07.221Z,4.12
2018-07-13T08:25:37.011Z,14.33
2018-07-13T08:28:07.309Z,3.77
2018-07-13T08:30:40.141Z,3.98
2018-07-13T08:33:10.003Z,3.47
2018-07-13T08:35:39.123Z,4.00
2018-07-13T08:38:08.486Z,4.28
2018-07-13T08:40:37.748Z,4.08
2018-07-13T08:43:06.758Z,4.50
2018-07-13T08:45:35.758Z,3.87
2018-07-13T08:48:04.942Z,4.10
2018-07-13T08:50:34.255Z,3.70
2018-07-13T08:53:03.411Z,4.47
2018-07-13T08:55:32.750Z,4.50
2018-07-13T08:58:02.109Z,5.28
2018-07-13T09:00:31.037Z,4.05
2018-07-13T09:02:59.967Z,3.67
2018-07-13T09:05:29.216Z,4.45
2018-07-13T09:07:58.391Z,3.65
2018-07-13T09:10:27.584Z,4.85
2018-07-13T09:12:56.765Z,3.77
2018-07-13T09:15:25.803Z,3.45
2018-07-13T09:17:55.151Z,3.80
2018-07-13T09:20:24.716Z,3.72
2018-07-13T09:22:54.217Z,3.47
2018-07-13T09:25:23.552Z,3.60
2018-07-13T09:27:52.416Z,3.77
2018-07-13T09:30:21.561Z,3.10
2018-07-13T09:32:50.787Z,3.37
2018-07-13T09:35:20.098Z,3.83
2018-07-13T09:37:49.548Z,3.72
2018-07-13T09:40:18.749Z,4.87
2018-07-13T09:42:48.200Z,3.40
2018-07-13T09:45:17.748Z,4.28
2018-07-13T09:47:46.929Z,4.50
2018-07-13T09:50:16.122Z,4.00
2018-07-13T09:52:45.387Z,5.37
2018-07-13T09:55:14.655Z,6.87
2018-07-13T09:57:43.969Z,4.00
2018-07-13T10:00:13.996Z,4.45
2018-07-13T10:02:43.145Z,6.97
2018-07-13T10:05:12.316Z,4.47
2018-07-13T10:07:41.488Z,5.55
2018-07-13T10:10:10.618Z,4.12
2018-07-13T10:12:40.129Z,5.67
2018-07-13T10:15:10.084Z,3.65
2018-07-13T10:17:39.304Z,4.83
2018-07-13T10:20:08.826Z,3.55
2018-07-13T10:22:38.077Z,4.12
2018-07-13T10:25:07.514Z,5.55
2018-07-13T10:27:38.508Z,4.10
2018-07-13T10:30:11.846Z,4.35
2018-07-13T10:32:42.614Z,5.33
2018-07-13T10:35:11.778Z,4.75
2018-07-13T10:37:41.765Z,4.17
2018-07-13T10:40:11.026Z,2.95
2018-07-13T10:42:40.125Z,4.70
2018-07-13T10:45:08.960Z,3.33
2018-07-13T10:47:37.828Z,4.00
2018-07-13T10:50:06.830Z,6.40
2018-07-13T10:52:36.082Z,4.37
2018-07-13T10:55:05.416Z,3.95
2018-07-13T10:57:34.603Z,4.15
2018-07-13T11:00:04.061Z,5.22
2018-07-13T11:02:33.340Z,5.45
2018-07-13T11:05:02.679Z,3.85
2018-07-13T11:07:32.054Z,4.15
2018-07-13T11:10:00.937Z,3.50
2018-07-13T11:12:29.950Z,3.02
2018-07-13T11:14:59.180Z,5.22
2018-07-13T11:17:28.311Z,3.85
2018-07-13T11:19:57.118Z,4.85
2018-07-13T11:22:26.152Z,4.12
2018-07-13T11:24:55.416Z,4.33
2018-07-13T11:27:24.480Z,3.92
2018-07-13T11:29:53.566Z,4.90
2018-07-13T11:32:22.847Z,5.33
2018-07-13T11:34:52.216Z,3.50
2018-07-13T11:37:21.436Z,3.45
2018-07-13T11:39:50.488Z,4.72
2018-07-13T11:42:19.869Z,3.27
2018-07-13T11:44:49.154Z,3.02
2018-07-13T11:47:18.409Z,3.90
2018-07-13T11:49:47.497Z,5.05
2018-07-13T11:52:16.450Z,3.02
2018-07-13T11:54:45.135Z,5.35
2018-07-13T11:57:14.584Z,7.40
2018-07-13T11:59:43.744Z,4.78
2018-07-13T12:02:12.900Z,8.37
2018-07-13T12:04:42.077Z,7.73
2018-07-13T12:07:11.215Z,7.53
2018-07-13T12:09:40.363Z,5.43
2018-07-13T12:12:10.740Z,6.03
2018-07-13T12:14:39.853Z,5.70
2018-07-13T12:17:09.032Z,5.93
2018-07-13T12:19:38.118Z,7.47
2018-07-13T12:22:07.039Z,7.00
2018-07-13T12:24:36.120Z,6.23
2018-07-13T12:27:05.443Z,6.93
2018-07-13T12:29:34.798Z,6.40
2018-07-13T12:32:03.846Z,6.57
2018-07-13T12:34:33.073Z,5.73
2018-07-13T12:37:02.164Z,5.40
2018-07-13T12:39:31.320Z,4.63
2018-07-13T12:42:00.337Z,5.27
2018-07-13T12:44:29.325Z,5.07
2018-07-13T12:46:58.655Z,5.27
2018-07-13T12:49:27.860Z,4.47
2018-07-13T12:51:57.006Z,4.80
2018-07-13T12:54:26.302Z,5.57
2018-07-13T12:56:55.364Z,3.83
2018-07-13T12:59:24.116Z,3.93
2018-07-13T13:01:53.173Z,4.57
2018-07-13T13:04:22.478Z,4.20
2018-07-13T13:06:51.700Z,4.37
2018-07-13T13:09:20.707Z,6.83
2018-07-13T13:11:49.819Z,4.73
2018-07-13T13:14:18.868Z,4.30
2018-07-13T13:16:48.021Z,3.50
2018-07-13T13:19:17.083Z,4.60
2018-07-13T13:21:46.391Z,3.77
2018-07-13T13:24:15.646Z,4.00
2018-07-13T13:26:44.906Z,3.87
2018-07-13T13:29:14.289Z,4.25
2018-07-13T13:31:43.405Z,3.87
2018-07-13T13:34:12.633Z,3.30
2018-07-13T13:36:41.987Z,4.05
2018-07-13T13:39:11.152Z,3.50
2018-07-13T13:41:40.423Z,3.27
2018-07-13T13:44:09.298Z,3.67
2018-07-13T13:46:38.443Z,4.37
2018-07-13T13:49:07.752Z,4.08
2018-07-13T13:51:37.020Z,4.47
2018-07-13T13:54:06.782Z,5.87
2018-07-13T13:56:36.149Z,3.92
2018-07-13T13:59:05.368Z,6.47
2018-07-13T14:01:34.711Z,3.27
2018-07-13T14:04:03.955Z,4.45
2018-07-13T14:06:33.480Z,4.45
2018-07-13T14:09:02.979Z,5.73
2018-07-13T14:11:32.447Z,4.70
2018-07-13T14:14:01.980Z,4.97
2018-07-13T14:16:32.118Z,4.83
2018-07-13T14:19:01.449Z,3.93
2018-07-13T14:21:30.973Z,3.93
2018-07-13T14:24:00.108Z,3.70
2018-07-13T14:26:29.269Z,3.97
2018-07-13T14:28:58.702Z,3.33
2018-07-13T14:31:27.856Z,4.10
2018-07-13T14:33:57.230Z,3.80
2018-07-13T14:36:27.703Z,4.70
2018-07-13T14:38:56.851Z,3.90
2018-07-13T14:41:26.020Z,3.97
2018-07-13T14:43:55.220Z,3.43
2018-07-13T14:46:24.399Z,3.00
2018-07-13T14:48:53.655Z,4.07
2018-07-13T14:51:22.940Z,5.17
2018-07-13T14:53:52.201Z,3.42
2018-07-13T14:56:21.482Z,3.17
2018-07-13T14:58:50.605Z,4.03
2018-07-13T15:01:19.908Z,3.70
2018-07-13T15:03:49.212Z,3.70
2018-07-13T15:06:18.789Z,3.20
2018-07-13T15:08:47.735Z,4.72
2018-07-13T15:11:16.853Z,3.27
2018-07-13T15:13:46.011Z,3.12
2018-07-13T15:16:15.198Z,3.45
2018-07-13T15:18:44.506Z,3.10
2018-07-13T15:21:13.832Z,4.50
2018-07-13T15:23:43.822Z,3.10
2018-07-13T15:26:13.004Z,2.92
2018-07-13T15:28:42.271Z,2.77
2018-07-13T15:31:11.164Z,3.10
2018-07-13T15:33:40.567Z,3.52
2018-07-13T15:36:09.768Z,3.10
2018-07-13T15:38:38.891Z,2.98
2018-07-13T15:41:08.208Z,2.95
2018-07-13T15:43:37.414Z,2.95
2018-07-13T15:46:06.939Z,2.75
2018-07-13T15:48:36.151Z,3.40
2018-07-13T15:51:05.353Z,3.50
2018-07-13T15:53:34.483Z,3.30
2018-07-13T15:56:03.742Z,3.00
2018-07-13T15:58:32.623Z,2.83
2018-07-13T16:01:01.585Z,2.50
2018-07-13T16:03:30.829Z,2.87
2018-07-13T16:06:00.160Z,2.80
2018-07-13T16:08:29.328Z,3.00
2018-07-13T16:10:58.553Z,2.45
2018-07-13T16:13:27.741Z,2.40
2018-07-13T16:15:56.603Z,2.90
2018-07-13T16:18:25.712Z,2.55
2018-07-13T16:20:54.882Z,2.25
2018-07-13T16:23:24.328Z,2.65
2018-07-13T16:25:53.665Z,2.70
2018-07-13T16:28:23.114Z,3.40
2018-07-13T16:30:52.057Z,3.60
2018-07-13T16:33:20.953Z,3.08
2018-07-13T16:35:49.905Z,2.52
2018-07-13T16:38:19.306Z,2.65
2018-07-13T16:40:48.603Z,3.30
2018-07-13T16:43:17.803Z,2.90
2018-07-13T16:45:47.017Z,3.02
2018-07-13T16:48:16.352Z,3.75
2018-07-13T16:50:45.688Z,4.25
2018-07-13T16:53:15.026Z,4.33
2018-07-13T16:55:44.422Z,4.03
2018-07-13T16:58:13.721Z,4.30
2018-07-13T17:00:42.807Z,3.98
2018-07-13T17:03:12.200Z,3.20
2018-07-13T17:05:41.391Z,5.78
2018-07-13T17:08:10.583Z,3.47
2018-07-13T17:10:39.849Z,3.95
2018-07-13T17:13:09.031Z,3.75
2018-07-13T17:15:38.122Z,3.52
2018-07-13T17:18:07.409Z,3.45
2018-07-13T17:20:36.780Z,3.40
2018-07-13T17:23:06.059Z,2.85
2018-07-13T17:25:35.256Z,3.65
2018-07-13T17:28:04.516Z,3.45
2018-07-13T17:30:33.322Z,3.27
2018-07-13T17:33:02.680Z,3.40
2018-07-13T17:35:31.846Z,3.20
2018-07-13T17:38:01.158Z,3.15
2018-07-13T17:40:30.373Z,3.10
2018-07-13T17:42:59.404Z,2.80
2018-07-13T17:45:28.509Z,2.90
2018-07-13T17:47:57.435Z,3.25
2018-07-13T17:50:26.621Z,3.77
2018-07-13T17:52:55.841Z,3.27
2018-07-13T17:55:25.029Z,3.40
2018-07-13T17:57:54.199Z,2.77
2018-07-13T18:00:23.086Z,2.50
2018-07-13T18:02:52.219Z,4.17
2018-07-13T18:05:21.301Z,3.12
2018-07-13T18:07:50.447Z,3.17
2018-07-13T18:10:19.761Z,3.55
2018-07-13T18:12:49.228Z,3.07
2018-07-13T18:15:18.496Z,4.92
2018-07-13T18:17:47.688Z,4.03
2018-07-13T18:20:16.974Z,3.20
2018-07-13T18:22:46.222Z,3.40
2018-07-13T18:25:15.129Z,3.17
2018-07-13T18:27:44.153Z,3.03
2018-07-13T18:30:13.878Z,2.90
2018-07-13T18:32:44.055Z,3.30
2018-07-13T18:35:14.022Z,2.80
2018-07-13T18:37:44.252Z,2.70
2018-07-13T18:40:14.314Z,3.10
2018-07-13T18:42:43.686Z,3.80
2018-07-13T18:45:13.485Z,3.87
2018-07-13T18:47:43.563Z,3.37
2018-07-13T18:50:12.986Z,3.30
2018-07-13T18:52:42.658Z,3.27
2018-07-13T18:55:12.681Z,3.30
2018-07-13T18:57:42.797Z,3.20
2018-07-13T19:00:12.374Z,3.20
2018-07-13T19:02:42.685Z,3.20
2018-07-13T19:05:12.656Z,3.40
2018-07-13T19:07:42.298Z,3.60
2018-07-13T19:10:11.567Z,3.70
2018-07-13T19:12:41.121Z,3.33
2018-07-13T19:15:10.866Z,3.83
2018-07-13T19:17:40.268Z,3.40
2018-07-13T19:20:09.704Z,3.77
2018-07-13T19:22:39.345Z,3.93
2018-07-13T19:25:08.957Z,4.27
2018-07-13T19:27:39.204Z,4.00
2018-07-13T19:30:08.937Z,3.70
2018-07-13T19:32:39.078Z,3.43
2018-07-13T19:35:08.635Z,14.20
2018-07-13T19:37:38.049Z,4.07
2018-07-13T19:40:07.306Z,3.73
2018-07-13T19:42:37.150Z,4.43
2018-07-13T19:45:07.533Z,4.47
2018-07-13T19:47:37.600Z,3.70
2018-07-13T19:50:07.142Z,3.97
2018-07-13T19:52:36.878Z,3.67
2018-07-13T19:55:06.609Z,3.70
2018-07-13T19:57:36.623Z,4.00
2018-07-13T20:00:06.304Z,4.07
2018-07-13T20:02:35.535Z,5.17
2018-07-13T20:05:04.940Z,4.30
2018-07-13T20:07:34.947Z,4.30
2018-07-13T20:10:05.537Z,4.17
2018-07-13T20:12:35.545Z,4.57
2018-07-13T20:15:05.627Z,3.10
2018-07-13T20:17:35.845Z,4.00
2018-07-13T20:20:07.587Z,4.53
2018-07-13T20:22:37.367Z,5.10
2018-07-13T20:25:07.284Z,3.63
2018-07-13T20:27:37.801Z,3.70
2018-07-13T20:30:08.445Z,4.83
2018-07-13T20:32:38.520Z,4.30
2018-07-13T20:35:08.130Z,4.23
2018-07-13T20:37:38.084Z,4.83
2018-07-13T20:40:07.735Z,4.90
2018-07-13T20:42:37.523Z,4.70
2018-07-13T20:45:07.161Z,5.73
2018-07-13T20:47:37.062Z,5.67
2018-07-13T20:50:07.394Z,7.60
2018-07-13T20:52:38.227Z,5.80
2018-07-13T20:55:08.634Z,5.23
2018-07-13T20:57:37.963Z,5.90
2018-07-13T21:00:07.838Z,4.77
2018-07-13T21:02:37.187Z,5.17
2018-07-13T21:05:06.407Z,5.00
2018-07-13T21:07:35.609Z,6.10
2018-07-13T21:10:04.739Z,5.80
2018-07-13T21:12:33.856Z,5.80
2018-07-13T21:15:03.134Z,5.30
2018-07-13T21:17:32.335Z,5.17
2018-07-13T21:20:01.577Z,5.47
2018-07-13T21:22:30.725Z,5.60
2018-07-13T21:24:59.808Z,6.20
2018-07-13T21:27:28.945Z,6.00
2018-07-13T21:29:58.301Z,6.80
2018-07-13T21:32:27.427Z,5.77
2018-07-13T21:34:56.743Z,5.97
2018-07-13T21:37:26.175Z,5.93
2018-07-13T21:39:55.331Z,7.03
2018-07-13T21:42:24.465Z,7.80
2018-07-13T21:44:53.581Z,7.77
2018-07-13T21:47:22.835Z,7.80
2018-07-13T21:49:52.058Z,7.30
2018-07-13T21:52:21.257Z,8.23
2018-07-13T21:54:50.547Z,7.63
2018-07-13T21:57:19.511Z,8.03
2018-07-13T21:59:48.723Z,6.83
2018-07-13T22:02:17.936Z,7.33
2018-07-13T22:04:46.761Z,7.40
2018-07-13T22:07:15.847Z,6.93
2018-07-13T22:09:45.071Z,7.17
2018-07-13T22:12:14.213Z,5.80
2018-07-13T22:14:43.357Z,7.53
2018-07-13T22:17:12.578Z,6.50
2018-07-13T22:19:41.781Z,6.33
2018-07-13T22:22:11.088Z,7.77
2018-07-13T22:24:40.314Z,8.10
2018-07-13T22:27:09.451Z,5.60
2018-07-13T22:29:38.685Z,6.60
2018-07-13T22:32:07.676Z,5.73
2018-07-13T22:34:36.845Z,6.70
2018-07-13T22:37:06.093Z,6.70
2018-07-13T22:39:35.141Z,5.73
2018-07-13T22:42:04.524Z,7.13
2018-07-13T22:44:33.910Z,7.17
2018-07-13T22:47:03.034Z,6.90
2018-07-13T22:49:32.539Z,7.50
2018-07-13T22:52:01.804Z,6.43
2018-07-13T22:54:30.728Z,6.70
2018-07-13T22:56:59.854Z,6.47
2018-07-13T22:59:28.909Z,6.67
2018-07-13T23:01:58.153Z,8.77
2018-07-13T23:04:27.045Z,8.40
2018-07-13T23:06:56.356Z,8.00
2018-07-13T23:09:25.598Z,8.50
2018-07-13T23:11:54.875Z,8.47
2018-07-13T23:14:24.069Z,8.30
2018-07-13T23:16:53.304Z,7.97
2018-07-13T23:19:22.422Z,7.30
2018-07-13T23:21:51.763Z,6.80
2018-07-13T23:24:21.026Z,5.70
2018-07-13T23:26:50.272Z,6.67
2018-07-13T23:29:19.442Z,6.30
2018-07-13T23:31:48.858Z,7.93
2018-07-13T23:34:17.726Z,8.20
2018-07-13T23:36:46.952Z,8.97
2018-07-13T23:39:16.146Z,7.83
2018-07-13T23:41:45.414Z,7.67
2018-07-13T23:44:14.639Z,8.03
2018-07-13T23:46:44.154Z,7.23
2018-07-13T23:49:13.322Z,6.90
2018-07-13T23:51:42.615Z,7.60
2018-07-13T23:54:11.751Z,7.20
2018-07-13T23:56:40.865Z,7.37
2018-07-13T23:59:09.951Z,6.67
